createdAt,value
2019-03-25T00:02:32.517Z,57.20
2019-03-25T00:05:05.100Z,57.20
2019-03-25T00:07:36.079Z,57.50
2019-03-25T00:10:07.980Z,57.60
2019-03-25T00:12:38.941Z,57.80
2019-03-25T00:15:12.382Z,57.90
2019-03-25T00:17:44.351Z,57.90
2019-03-25T00:20:15.215Z,57.80
2019-03-25T00:22:46.133Z,57.90
2019-03-25T00:25:17.379Z,57.70
2019-03-25T00:27:49.070Z,57.80
2019-03-25T00:30:20.710Z,57.90
2019-03-25T00:32:51.557Z,58.00
2019-03-25T00:35:22.518Z,58.30
2019-03-25T00:37:53.387Z,58.20
2019-03-25T00:40:25.191Z,58.40
2019-03-25T00:42:56.111Z,58.30
2019-03-25T00:45:27.534Z,58.60
2019-03-25T00:47:59.274Z,58.40
2019-03-25T00:50:31.507Z,58.50
2019-03-25T00:53:03.615Z,58.70
2019-03-25T00:55:35.427Z,58.90
2019-03-25T00:58:07.661Z,58.70
2019-03-25T01:00:38.830Z,58.70
2019-03-25T01:03:10.253Z,58.60
2019-03-25T01:05:41.312Z,58.60
2019-03-25T01:08:15.021Z,58.60
2019-03-25T01:10:46.404Z,58.70
2019-03-25T01:13:17.370Z,59.00
2019-03-25T01:15:48.308Z,58.90
2019-03-25T01:18:20.502Z,59.00
2019-03-25T01:20:51.777Z,59.00
2019-03-25T01:23:23.123Z,59.10
2019-03-25T01:25:55.284Z,59.60
2019-03-25T01:28:26.125Z,59.10
2019-03-25T01:30:57.782Z,58.60
2019-03-25T01:33:29.781Z,58.90
2019-03-25T01:36:00.730Z,58.90
2019-03-25T01:38:33.198Z,58.60
2019-03-25T01:41:07.236Z,58.80
2019-03-25T01:43:38.097Z,59.00
2019-03-25T01:46:09.428Z,58.70
2019-03-25T01:48:40.288Z,58.70
2019-03-25T01:51:11.977Z,58.80
2019-03-25T01:53:43.312Z,58.60
2019-03-25T01:56:16.445Z,58.30
2019-03-25T01:58:47.634Z,58.20
2019-03-25T02:01:18.408Z,58.10
2019-03-25T02:03:49.400Z,58.00
2019-03-25T02:06:20.635Z,58.10
2019-03-25T02:08:54.104Z,58.30
2019-03-25T02:11:25.547Z,58.30
2019-03-25T02:13:56.885Z,58.50
2019-03-25T02:16:28.310Z,58.70
2019-03-25T02:18:59.295Z,58.60
2019-03-25T02:21:30.440Z,58.70
2019-03-25T02:24:01.864Z,58.70
2019-03-25T02:26:33.828Z,58.90
2019-03-25T02:29:04.668Z,59.20
2019-03-25T02:31:35.911Z,59.10
2019-03-25T02:34:06.819Z,59.10
2019-03-25T02:36:40.893Z,59.30
2019-03-25T02:39:11.813Z,59.40
2019-03-25T02:41:44.217Z,59.40
2019-03-25T02:44:17.816Z,59.10
2019-03-25T02:46:49.554Z,59.20
2019-03-25T02:49:23.788Z,59.40
2019-03-25T02:51:55.754Z,59.10
2019-03-25T02:54:27.017Z,59.00
2019-03-25T02:56:58.202Z,59.00
2019-03-25T02:59:29.456Z,59.20
2019-03-25T03:02:01.592Z,59.30
2019-03-25T03:04:33.098Z,59.50
2019-03-25T03:07:04.069Z,59.90
2019-03-25T03:09:35.172Z,59.90
2019-03-25T03:12:06.468Z,59.90
2019-03-25T03:14:37.806Z,60.00
2019-03-25T03:17:08.804Z,60.50
2019-03-25T03:19:40.288Z,60.50
2019-03-25T03:22:11.572Z,60.40
2019-03-25T03:24:45.636Z,60.50
2019-03-25T03:27:18.865Z,60.80
2019-03-25T03:29:49.866Z,61.20
2019-03-25T03:32:20.791Z,61.10
2019-03-25T03:34:52.632Z,60.80
2019-03-25T03:37:24.215Z,60.80
2019-03-25T03:39:55.397Z,60.80
2019-03-25T03:42:26.714Z,60.80
2019-03-25T03:44:59.944Z,61.20
2019-03-25T03:47:30.819Z,61.20
2019-03-25T03:50:02.471Z,61.40
2019-03-25T03:52:33.692Z,61.60
2019-03-25T03:55:05.311Z,61.30
2019-03-25T03:57:36.206Z,61.40
2019-03-25T04:00:07.858Z,61.50
2019-03-25T04:02:39.773Z,62.20
2019-03-25T04:05:11.621Z,62.10
2019-03-25T04:07:43.062Z,62.10
2019-03-25T04:10:14.069Z,62.30
2019-03-25T04:12:45.201Z,62.30
2019-03-25T04:15:19.505Z,62.30
2019-03-25T04:17:51.136Z,62.40
2019-03-25T04:20:24.456Z,62.90
2019-03-25T04:22:55.834Z,63.00
2019-03-25T04:25:26.787Z,63.20
2019-03-25T04:27:57.804Z,63.10
2019-03-25T04:30:29.014Z,62.90
2019-03-25T04:33:00.306Z,62.70
2019-03-25T04:35:31.227Z,62.90
2019-03-25T04:38:03.003Z,62.70
2019-03-25T04:40:34.744Z,62.20
2019-03-25T04:43:06.043Z,62.70
2019-03-25T04:45:37.419Z,62.60
2019-03-25T04:48:08.731Z,62.50
2019-03-25T04:50:40.558Z,62.90
2019-03-25T04:53:11.412Z,63.10
2019-03-25T04:55:43.404Z,63.20
2019-03-25T04:58:14.645Z,63.50
2019-03-25T05:00:45.643Z,63.10
2019-03-25T05:03:16.478Z,63.20
2019-03-25T05:05:48.948Z,63.60
2019-03-25T05:08:19.853Z,63.40
2019-03-25T05:10:54.367Z,63.40
2019-03-25T05:13:25.196Z,63.20
2019-03-25T05:15:57.068Z,63.50
2019-03-25T05:18:27.982Z,63.60
2019-03-25T05:20:59.281Z,63.80
2019-03-25T05:23:32.496Z,63.60
2019-03-25T05:26:03.501Z,63.40
2019-03-25T05:28:34.417Z,63.50
2019-03-25T05:31:05.366Z,63.30
2019-03-25T05:33:38.674Z,63.40
2019-03-25T05:36:09.614Z,63.30
2019-03-25T05:38:40.443Z,63.80
2019-03-25T05:41:16.094Z,64.10
2019-03-25T05:43:47.401Z,64.30
2019-03-25T05:46:18.226Z,64.00
2019-03-25T05:48:50.343Z,63.80
2019-03-25T05:51:22.070Z,63.80
2019-03-25T05:53:53.295Z,63.60
2019-03-25T05:56:24.280Z,63.40
2019-03-25T05:58:55.441Z,63.30
2019-03-25T06:01:27.049Z,63.70
2019-03-25T06:04:16.448Z,63.70
2019-03-25T06:06:48.393Z,64.10
2019-03-25T06:09:19.329Z,63.80
2019-03-25T06:11:50.482Z,64.00
2019-03-25T06:14:21.970Z,63.60
2019-03-25T06:16:53.464Z,64.00
2019-03-25T06:19:24.370Z,64.10
2019-03-25T06:21:55.501Z,63.20
2019-03-25T06:24:26.514Z,63.40
2019-03-25T06:26:57.947Z,62.60
2019-03-25T06:29:28.937Z,61.70
2019-03-25T06:32:03.923Z,61.50
2019-03-25T06:34:35.189Z,62.20
2019-03-25T06:37:06.272Z,62.10
2019-03-25T06:39:40.817Z,60.90
2019-03-25T06:42:12.014Z,60.80
2019-03-25T06:44:44.369Z,60.60
2019-03-25T06:47:15.875Z,60.60
2019-03-25T06:49:49.542Z,60.40
2019-03-25T06:52:20.771Z,60.80
2019-03-25T06:55:03.371Z,60.90
2019-03-25T06:57:38.296Z,61.10
2019-03-25T07:00:08.346Z,60.00
2019-03-25T07:02:44.773Z,60.60
2019-03-25T07:05:17.177Z,59.70
2019-03-25T07:07:48.693Z,59.30
2019-03-25T07:10:47.597Z,58.80
2019-03-25T07:14:04.463Z,58.10
2019-03-25T07:16:51.603Z,57.70
2019-03-25T07:19:24.569Z,57.40
2019-03-25T07:21:58.574Z,57.10
2019-03-25T07:24:33.541Z,58.10
2019-03-25T07:27:19.895Z,57.20
2019-03-25T07:29:53.494Z,56.50
2019-03-25T07:32:24.922Z,56.20
2019-03-25T07:34:57.428Z,55.70
2019-03-25T07:37:29.406Z,55.40
2019-03-25T07:40:02.644Z,55.00
2019-03-25T07:42:34.433Z,55.10
2019-03-25T07:45:05.749Z,54.70
2019-03-25T07:47:38.353Z,54.40
2019-03-25T07:50:09.877Z,54.00
2019-03-25T07:52:57.982Z,53.90
2019-03-25T07:55:35.727Z,53.60
2019-03-25T07:58:11.976Z,53.50
2019-03-25T08:00:42.850Z,53.30
2019-03-25T08:03:14.647Z,53.10
2019-03-25T08:24:55.445Z,53.10
2019-03-25T08:27:44.525Z,52.80
2019-03-25T08:40:11.210Z,52.80
2019-03-25T08:41:42.144Z,53.50
2019-03-25T08:45:15.927Z,52.80
2019-03-25T08:48:36.096Z,52.30
2019-03-25T08:51:26.497Z,52.20
2019-03-25T08:54:08.441Z,52.20
2019-03-25T08:56:45.405Z,52.30
2019-03-25T09:00:02.019Z,52.30
2019-03-25T09:03:13.774Z,52.00
2019-03-25T09:06:03.599Z,52.00
2019-03-25T09:09:07.216Z,52.50
2019-03-25T09:11:51.953Z,52.20
2019-03-25T09:14:34.917Z,51.90
2019-03-25T09:17:36.535Z,51.80
2019-03-25T09:20:14.300Z,51.70
2019-03-25T09:23:25.955Z,51.60
2019-03-25T09:26:45.476Z,51.50
2019-03-25T09:32:29.752Z,52.10
2019-03-25T09:36:12.079Z,51.80
2019-03-25T09:38:50.891Z,51.30
2019-03-25T09:41:44.735Z,50.90
2019-03-25T09:44:21.652Z,50.60
2019-03-25T09:46:56.690Z,50.40
2019-03-25T09:49:50.956Z,50.50
2019-03-25T09:52:38.768Z,50.50
2019-03-25T09:56:03.630Z,50.30
2019-03-25T10:06:23.547Z,49.20
2019-03-25T10:23:32.324Z,48.00
2019-03-25T10:26:26.284Z,48.70
2019-03-25T10:29:09.627Z,47.50
2019-03-25T10:35:57.627Z,47.10
2019-03-25T10:39:59.870Z,46.90
2019-03-25T10:48:35.024Z,47.00
2019-03-25T10:51:30.502Z,46.10
2019-03-25T10:54:19.338Z,45.60
2019-03-25T11:00:52.185Z,44.80
2019-03-25T11:04:01.915Z,45.40
2019-03-25T11:06:45.343Z,44.50
2019-03-25T11:17:46.761Z,43.60
2019-03-25T11:24:19.832Z,43.60
2019-03-25T11:27:17.064Z,43.50
2019-03-25T11:30:13.014Z,42.90
2019-03-25T11:33:01.581Z,42.90
2019-03-25T11:36:08.026Z,42.80
2019-03-25T11:39:08.786Z,42.50
2019-03-25T11:41:54.676Z,42.10
2019-03-25T11:44:57.030Z,42.70
2019-03-25T11:47:51.047Z,41.60
2019-03-25T11:51:02.068Z,41.30
2019-03-25T11:54:12.877Z,40.80
2019-03-25T11:56:55.362Z,40.80
2019-03-25T11:59:54.121Z,40.90
2019-03-25T12:05:55.806Z,40.60
2019-03-25T12:09:13.208Z,40.60
2019-03-25T12:11:57.880Z,40.50
2019-03-25T12:15:16.991Z,40.60
2019-03-25T12:18:51.342Z,40.80
2019-03-25T12:21:23.819Z,41.00
2019-03-25T12:24:31.768Z,41.00
2019-03-25T12:27:13.757Z,42.10
2019-03-25T12:29:55.067Z,41.70
2019-03-25T12:32:46.976Z,42.20
2019-03-25T12:35:45.503Z,41.70
2019-03-25T12:38:37.214Z,42.20
2019-03-25T12:41:38.349Z,41.80
2019-03-25T12:45:12.295Z,41.60
2019-03-25T12:48:29.087Z,42.70
2019-03-25T12:51:28.470Z,42.20
2019-03-25T12:54:28.126Z,42.80
2019-03-25T12:57:37.675Z,41.80
2019-03-25T13:00:32.253Z,41.80
2019-03-25T13:03:33.905Z,41.80
2019-03-25T13:06:43.989Z,41.90
2019-03-25T13:09:33.004Z,42.20
2019-03-25T13:12:16.854Z,42.00
2019-03-25T13:15:12.751Z,42.10
2019-03-25T13:17:55.622Z,42.40
2019-03-25T16:50:31.064Z,59.70
2019-03-25T16:53:31.418Z,60.40
2019-03-25T16:56:25.634Z,61.00
2019-03-25T16:59:24.406Z,61.20
2019-03-25T17:02:03.658Z,61.30
2019-03-25T17:04:59.275Z,61.00
2019-03-25T17:07:41.909Z,60.70
2019-03-25T17:10:47.349Z,60.90
2019-03-25T17:13:59.221Z,60.90
2019-03-25T17:16:47.933Z,60.60
2019-03-25T17:19:59.075Z,60.60
2019-03-25T17:22:55.892Z,60.60
2019-03-25T17:25:53.483Z,60.80
2019-03-25T17:29:26.879Z,60.20
2019-03-25T17:32:11.717Z,60.00
2019-03-25T17:34:46.944Z,59.80
2019-03-25T17:38:27.014Z,59.70
2019-03-25T17:41:10.943Z,59.30
2019-03-25T17:44:25.548Z,59.10
2019-03-25T17:47:21.805Z,59.60
2019-03-25T17:49:55.557Z,60.40
2019-03-25T17:52:32.060Z,60.00
2019-03-25T17:55:08.690Z,59.70
2019-03-25T17:57:44.572Z,59.10
2019-03-25T18:00:18.506Z,59.20
2019-03-25T18:02:54.941Z,59.20
2019-03-25T18:05:33.301Z,59.20
2019-03-25T18:08:08.456Z,59.40
2019-03-25T18:11:01.304Z,59.30
2019-03-25T18:13:40.021Z,59.60
2019-03-25T18:16:14.941Z,59.70
2019-03-25T18:18:52.473Z,60.00
2019-03-25T18:21:26.357Z,60.40
2019-03-25T18:24:07.809Z,59.70
2019-03-25T18:26:52.920Z,59.90
2019-03-25T18:30:05.282Z,59.30
2019-03-25T18:33:10.759Z,59.40
2019-03-25T18:36:24.533Z,59.30
2019-03-25T18:47:43.308Z,60.10
2019-03-25T18:51:36.057Z,61.00
2019-03-25T18:54:33.351Z,62.10
2019-03-25T18:57:33.873Z,62.10
2019-03-25T19:00:22.270Z,62.50
2019-03-25T19:03:09.327Z,62.70
2019-03-25T19:05:42.432Z,62.80
2019-03-25T19:08:19.448Z,63.10
2019-03-25T19:11:33.948Z,63.30
2019-03-25T19:15:27.735Z,63.30
2019-03-25T19:19:02.132Z,63.60
2019-03-25T19:22:33.488Z,63.90
2019-03-25T19:25:31.536Z,63.30
2019-03-25T19:28:06.585Z,63.10
2019-03-25T19:31:19.340Z,62.80
2019-03-25T19:34:11.701Z,63.60
2019-03-25T19:36:44.987Z,62.70
2019-03-25T19:39:16.687Z,62.20
2019-03-25T19:41:49.934Z,62.00
2019-03-25T19:44:21.836Z,62.70
2019-03-25T19:46:55.856Z,63.10
2019-03-25T19:49:28.734Z,62.90
2019-03-25T19:52:15.507Z,62.70
2019-03-25T19:54:47.974Z,62.70
2019-03-25T19:57:19.815Z,62.30
2019-03-25T19:59:52.007Z,62.70
2019-03-25T20:02:40.899Z,63.00
2019-03-25T20:05:23.889Z,63.00
2019-03-25T20:08:13.593Z,62.80
2019-03-25T20:10:53.918Z,62.10
2019-03-25T20:13:28.624Z,62.80
2019-03-25T20:16:20.611Z,62.00
2019-03-25T20:18:53.910Z,61.50
2019-03-25T20:21:26.494Z,61.90
2019-03-25T20:24:03.592Z,61.80
2019-03-25T20:26:52.835Z,62.10
2019-03-25T20:29:53.476Z,62.90
2019-03-25T20:32:31.825Z,62.40
2019-03-25T20:40:29.245Z,62.20
2019-03-25T21:21:45.600Z,61.20
2019-03-25T21:24:25.299Z,61.10
2019-03-25T21:30:06.477Z,61.50
2019-03-25T21:32:58.524Z,61.30
2019-03-25T21:39:04.001Z,62.30
2019-03-25T21:42:10.960Z,61.50
2019-03-25T21:44:48.820Z,61.40
2019-03-25T21:47:50.146Z,61.90
2019-03-25T21:50:38.705Z,61.60
2019-03-25T21:56:50.647Z,61.70
2019-03-25T21:59:30.100Z,61.80
2019-03-25T22:02:10.620Z,61.70
2019-03-25T22:04:49.444Z,62.70
2019-03-25T22:07:21.534Z,63.00
2019-03-25T22:10:01.385Z,63.10
2019-03-25T22:13:07.431Z,62.10
2019-03-25T22:15:44.359Z,62.10
2019-03-25T22:18:16.441Z,62.70
2019-03-25T22:20:51.314Z,62.60
2019-03-25T22:23:23.351Z,62.30
2019-03-25T22:25:56.767Z,62.00
2019-03-25T22:28:26.874Z,62.10
2019-03-25T22:31:03.083Z,62.30
2019-03-25T22:33:40.085Z,62.10
2019-03-25T22:36:11.653Z,62.90
2019-03-25T22:38:43.102Z,62.30
2019-03-25T22:41:17.190Z,63.10
2019-03-25T22:43:54.958Z,62.30
2019-03-25T22:46:28.040Z,62.70
2019-03-25T22:48:59.385Z,63.30
2019-03-25T22:51:31.892Z,62.50
2019-03-25T22:54:04.727Z,62.30
2019-03-25T22:56:36.121Z,62.50
2019-03-25T22:59:07.199Z,62.10
2019-03-25T23:01:39.260Z,61.90
2019-03-25T23:04:15.878Z,62.00
2019-03-25T23:06:47.362Z,63.00
2019-03-25T23:09:18.805Z,62.50
2019-03-25T23:11:50.377Z,62.60
2019-03-25T23:18:54.294Z,63.00
2019-03-25T23:25:04.634Z,63.00
2019-03-25T23:28:18.537Z,62.60
2019-03-25T23:31:26.906Z,62.40
2019-03-25T23:34:38.299Z,62.60
2019-03-25T23:37:21.880Z,62.20
2019-03-25T23:40:04.777Z,63.10
2019-03-25T23:42:45.276Z,63.10
2019-03-25T23:46:13.255Z,63.10
2019-03-25T23:49:08.572Z,62.30
2019-03-25T23:52:01.105Z,62.00
2019-03-25T23:55:38.060Z,62.90
